Time;durP1;ratioP1;P1;durP2;ratioP2;P2;SDS_P1;SDS_P2;PMS_P1;PMS_P2;Temp;Humidity;BMP_temperature;BMP_pressure;BME280_temperature;BME280_humidity;BME280_pressure;Samples;Min_cycle;Max_cycle;Signal;HPM_P1;HPM_P2
2022/10/09 00:01:04;;;;;;;14.40;7.73;;;13.30;98.00;;;13.51;63.12;95326.72;5029301;28;20546;-56
2022/10/09 00:03:33;;;;;;;10.60;7.17;;;13.30;98.00;;;13.52;63.88;95327.53;5028730;28;20522;-55
2022/10/09 00:06:00;;;;;;;16.30;7.53;;;13.30;98.20;;;13.49;63.71;95327.84;5028880;28;20538;-57
2022/10/09 00:08:27;;;;;;;9.37;7.57;;;13.20;98.30;;;13.51;63.80;95329.38;5028595;28;20459;-55
2022/10/09 00:10:55;;;;;;;9.47;6.80;;;13.30;98.60;;;13.47;63.50;95322.69;5029002;28;20465;-55
2022/10/09 00:13:22;;;;;;;8.00;6.40;;;13.20;98.00;;;13.45;63.46;95322.84;5029355;28;20457;-57
2022/10/09 00:15:49;;;;;;;11.37;6.43;;;13.20;98.00;;;13.41;63.56;95325.94;5029069;28;20476;-55
2022/10/09 00:18:18;;;;;;;7.10;6.40;;;13.20;98.00;;;13.38;63.75;95310.38;5027521;28;20522;-56
2022/10/09 00:20:46;;;;;;;11.90;7.00;;;13.10;98.10;;;13.36;63.35;95317.63;5028571;28;20521;-53
2022/10/09 00:23:16;;;;;;;11.23;6.20;;;13.10;98.10;;;13.33;63.67;95312.59;5028496;28;20574;-56
2022/10/09 00:25:51;;;;;;;9.47;6.87;;;13.10;98.10;;;13.31;63.77;95318.03;5024908;28;20499;-53
2022/10/09 00:28:19;;;;;;;11.40;7.63;;;13.10;98.30;;;13.32;63.51;95313.56;5027927;28;20881;-55
2022/10/09 00:30:46;;;;;;;10.23;6.40;;;13.00;98.20;;;13.29;63.98;95314.66;5025545;28;21086;-55
2022/10/09 00:33:14;;;;;;;11.07;6.73;;;13.00;98.30;;;13.27;63.90;95306.88;5029181;28;20459;-55
2022/10/09 00:35:41;;;;;;;11.90;6.77;;;13.00;98.20;;;13.25;63.94;95306.22;5028389;28;20505;-55
2022/10/09 00:38:09;;;;;;;12.30;7.23;;;13.00;98.30;;;13.22;63.88;95303.88;5028786;28;20452;-54
2022/10/09 00:40:37;;;;;;;6.70;6.10;;;13.00;98.40;;;13.19;63.49;95295.41;5027923;28;20865;-54
2022/10/09 00:43:04;;;;;;;10.50;7.97;;;13.00;98.30;;;13.17;64.29;95302.66;5028670;28;20582;-55
2022/10/09 00:45:31;;;;;;;10.50;6.30;;;12.90;98.40;;;13.15;63.99;95301.94;5027712;28;20472;-55
2022/10/09 00:48:01;;;;;;;7.67;6.60;;;12.90;98.40;;;13.13;64.02;95293.34;5029001;28;20460;-56
2022/10/09 00:50:31;;;;;;;10.40;6.90;;;12.90;98.50;;;13.10;64.06;95286.53;5028224;28;20495;-54
2022/10/09 00:53:00;;;;;;;8.40;5.50;;;12.90;98.60;;;13.09;64.21;95291.00;5025001;28;20826;-55
2022/10/09 00:55:28;;;;;;;8.83;6.30;;;12.90;98.50;;;13.08;64.23;95293.78;5027319;28;20480;-57
2022/10/09 00:57:56;;;;;;;7.30;6.67;;;12.90;98.60;;;13.09;64.68;95292.81;5028236;28;20455;-56
2022/10/09 01:00:23;;;;;;;8.50;7.07;;;12.80;98.60;;;13.08;64.17;95294.59;5025522;28;20500;-56
2022/10/09 01:02:50;;;;;;;12.93;6.10;;;12.90;98.50;;;13.05;64.35;95292.25;5027693;28;20500;-57
2022/10/09 01:05:18;;;;;;;7.77;5.77;;;12.80;98.70;;;13.04;64.42;95282.69;5027452;28;20473;-55
2022/10/09 01:07:48;;;;;;;15.43;6.80;;;12.80;98.80;;;13.03;64.19;95288.94;5024003;28;20449;-55
2022/10/09 01:10:27;;;;;;;12.60;7.63;;;12.80;98.70;;;13.03;64.39;95290.75;5027209;28;21028;-56
2022/10/09 01:13:05;;;;;;;9.53;6.70;;;12.80;98.80;;;13.03;64.39;95285.47;5024616;28;20456;-56
2022/10/09 01:15:36;;;;;;;9.23;5.90;;;12.80;98.90;;;13.02;64.60;95286.44;5027453;28;20841;-57
2022/10/09 01:18:08;;;;;;;11.23;6.33;;;12.80;98.90;;;13.01;64.53;95290.03;5028314;28;20437;-57
2022/10/09 01:20:41;;;;;;;11.37;6.73;;;12.80;98.90;;;13.00;64.42;95291.03;5027814;28;20508;-54
2022/10/09 01:23:47;;;;;;;7.83;7.13;;;12.70;98.80;;;12.96;65.56;95287.84;5025830;28;20476;-55
2022/10/09 01:26:49;;;;;;;10.53;6.77;;;12.70;99.20;;;12.95;64.93;95298.53;5027441;28;20667;-56
2022/10/09 01:29:19;;;;;;;10.10;7.23;;;12.70;98.90;;;12.91;64.90;95298.81;5025975;28;20452;-56
2022/10/09 01:31:47;;;;;;;6.30;5.70;;;12.70;99.10;;;12.89;64.91;95292.88;5027437;28;20456;-57
2022/10/09 01:34:15;;;;;;;14.70;7.20;;;12.70;99.10;;;12.87;64.99;95297.47;5027667;28;20878;-56
2022/10/09 01:36:42;;;;;;;9.90;6.97;;;12.70;99.30;;;12.86;65.29;95295.78;5027286;28;20549;-55
2022/10/09 01:39:11;;;;;;;8.20;6.57;;;12.60;99.30;;;12.85;65.08;95288.84;5026962;28;20510;-55
2022/10/09 01:41:38;;;;;;;7.70;6.57;;;12.60;99.20;;;12.85;64.61;95288.03;5027168;28;20457;-54
2022/10/09 01:44:18;;;;;;;12.37;6.67;;;12.60;99.30;;;12.84;65.05;95289.84;5027006;28;20496;-55
2022/10/09 01:46:45;;;;;;;9.60;6.13;;;12.60;99.30;;;12.82;65.09;95289.13;5024714;28;20453;-56
2022/10/09 01:49:17;;;;;;;10.53;6.27;;;12.60;99.20;;;12.79;64.62;95299.97;5027229;28;20461;-55
2022/10/09 01:51:47;;;;;;;18.67;7.20;;;12.60;99.10;;;12.77;64.59;95295.84;5023516;28;20445;-55
2022/10/09 01:54:15;;;;;;;8.93;6.23;;;12.50;99.00;;;12.75;64.89;95301.25;5027023;28;20452;-55
2022/10/09 01:56:42;;;;;;;12.43;7.17;;;12.50;99.20;;;12.74;64.66;95302.22;5026753;28;20464;-55
2022/10/09 01:59:12;;;;;;;8.83;7.30;;;12.50;99.10;;;12.72;64.90;95296.25;5026480;28;20475;-57
2022/10/09 02:01:41;;;;;;;9.80;7.03;;;12.50;99.20;;;12.71;64.87;95299.84;5026667;28;21010;-57
2022/10/09 02:04:09;;;;;;;8.60;7.30;;;12.50;99.20;;;12.70;65.00;95304.31;5026525;28;21019;-55
2022/10/09 02:06:37;;;;;;;11.30;6.23;;;12.50;99.20;;;12.68;64.94;95297.50;5026211;28;20464;-55
2022/10/09 02:09:04;;;;;;;7.13;6.43;;;12.50;99.20;;;12.67;64.88;95301.09;5026850;28;20452;-56
2022/10/09 02:11:32;;;;;;;11.60;6.60;;;12.40;99.20;;;12.63;65.07;95305.03;5025992;28;20965;-56
2022/10/09 02:13:59;;;;;;;7.53;6.77;;;12.40;99.30;;;12.61;65.07;95304.31;5026546;28;20746;-55
2022/10/09 02:16:31;;;;;;;9.50;6.70;;;12.40;99.40;;;12.59;65.09;95306.28;5026392;28;20962;-55
2022/10/09 02:19:02;;;;;;;9.57;7.07;;;12.40;99.40;;;12.57;65.54;95310.88;5026486;28;20487;-54
2022/10/09 02:21:34;;;;;;;15.73;7.00;;;12.40;99.40;;;12.56;65.23;95315.28;5026288;28;20487;-54
2022/10/09 02:24:01;;;;;;;9.40;7.00;;;12.40;99.60;;;12.53;65.19;95316.44;5026313;28;20481;-55
2022/10/09 02:26:28;;;;;;;11.63;6.97;;;12.40;99.40;;;12.51;65.23;95315.72;5026391;28;20453;-55
2022/10/09 02:28:57;;;;;;;16.00;7.13;;;12.30;99.50;;;12.51;65.34;95318.34;5026433;28;20491;-55
2022/10/09 02:31:26;;;;;;;9.83;6.70;;;12.30;99.60;;;12.49;65.43;95317.66;5025951;28;20514;-56
2022/10/09 02:33:57;;;;;;;9.07;6.57;;;12.30;99.60;;;12.47;65.21;95322.25;5025872;28;20980;-55
2022/10/09 02:36:25;;;;;;;11.90;6.77;;;12.30;99.60;;;12.42;65.47;95321.00;5026251;28;20457;-54
2022/10/09 02:38:54;;;;;;;14.53;7.23;;;12.20;99.60;;;12.36;65.48;95319.75;5022649;28;20533;-55
2022/10/09 02:41:21;;;;;;;11.57;6.70;;;12.20;99.80;;;12.37;65.73;95316.16;5025970;28;20481;-56
2022/10/09 02:43:49;;;;;;;9.47;6.30;;;12.20;99.90;;;12.36;65.67;95323.25;5025946;28;20484;-54
2022/10/09 02:46:16;;;;;;;13.00;7.40;;;12.10;99.80;;;12.34;65.73;95321.72;5025522;28;20469;-54
2022/10/09 02:48:43;;;;;;;14.13;7.40;;;12.10;99.80;;;12.31;65.63;95317.53;5026069;28;20537;-55
2022/10/09 02:51:10;;;;;;;8.17;7.37;;;12.10;99.80;;;12.28;65.76;95315.16;5026055;28;20472;-55
2022/10/09 02:53:39;;;;;;;10.83;6.33;;;12.10;99.90;;;12.26;66.15;95313.66;5027655;28;20518;-56
2022/10/09 02:56:06;;;;;;;10.30;6.20;;;12.00;99.90;;;12.26;65.97;95316.31;5025966;28;20546;-55
2022/10/09 02:58:34;;;;;;;10.77;7.47;;;12.00;99.90;;;12.23;66.00;95313.94;5025524;28;20464;-55
2022/10/09 03:01:01;;;;;;;8.40;6.60;;;12.00;99.90;;;12.23;66.08;95319.22;5025331;28;20477;-55
2022/10/09 03:03:29;;;;;;;12.30;6.80;;;12.00;99.90;;;12.21;66.07;95316.72;5025187;28;20911;-56
2022/10/09 03:06:02;;;;;;;9.43;6.60;;;12.00;99.90;;;12.21;66.03;95322.00;5025282;28;21149;-57
2022/10/09 03:08:30;;;;;;;7.20;6.13;;;12.00;99.90;;;12.22;66.36;95314.91;5024714;28;20464;-56
2022/10/09 03:10:58;;;;;;;13.90;6.73;;;12.00;99.90;;;12.20;66.02;95326.41;5025899;28;20678;-55
2022/10/09 03:13:26;;;;;;;9.03;5.60;;;12.00;99.90;;;12.19;65.96;95330.03;5025370;28;20456;-54
2022/10/09 03:15:53;;;;;;;12.50;5.33;;;12.00;99.90;;;12.17;65.83;95325.88;5025759;28;20942;-55
2022/10/09 03:18:20;;;;;;;8.90;5.57;;;12.00;99.90;;;12.17;66.20;95325.88;5024848;28;20460;-54
2022/10/09 03:20:48;;;;;;;11.07;6.57;;;12.00;99.90;;;12.15;66.16;95331.28;5025597;28;20523;-55
2022/10/09 03:23:15;;;;;;;10.00;6.00;;;11.90;99.90;;;12.13;66.20;95335.88;5025503;28;20456;-55
2022/10/09 03:25:43;;;;;;;6.80;6.10;;;11.90;99.90;;;12.10;66.20;95330.00;5025339;28;20563;-57
2022/10/09 03:28:11;;;;;;;8.80;5.83;;;11.90;99.90;;;12.11;65.84;95336.97;5025133;28;20452;-55
2022/10/09 03:30:41;;;;;;;14.80;6.00;;;11.90;99.90;;;12.08;65.95;95343.34;5025067;28;20945;-54
2022/10/09 03:33:08;;;;;;;8.90;5.97;;;11.90;99.90;;;12.07;66.08;95340.84;5024877;28;20662;-56
2022/10/09 03:35:36;;;;;;;7.03;6.33;;;11.90;99.90;;;12.07;65.63;95340.84;5025552;28;20472;-56
2022/10/09 03:38:03;;;;;;;9.00;6.90;;;11.80;99.90;;;12.05;66.55;95338.34;5025268;28;21031;-56
2022/10/09 03:40:30;;;;;;;6.13;5.53;;;11.80;99.90;;;12.06;66.01;95345.28;5025165;28;20853;-55
2022/10/09 03:42:57;;;;;;;6.87;5.40;;;11.80;99.90;;;12.06;66.24;95349.75;5024821;28;20479;-55
2022/10/09 03:45:26;;;;;;;14.77;5.77;;;11.80;99.90;;;12.05;65.99;95340.97;5024883;28;20488;-55
2022/10/09 03:47:53;;;;;;;8.80;6.30;;;11.80;99.90;;;12.05;66.14;95340.16;5025629;28;20453;-55
2022/10/09 03:50:21;;;;;;;10.03;6.60;;;11.80;99.90;;;12.04;66.33;95341.97;5024688;28;20549;-55
2022/10/09 03:52:48;;;;;;;14.00;6.50;;;11.80;99.90;;;12.04;66.25;95344.59;5024803;28;20449;-56
2022/10/09 03:55:15;;;;;;;11.47;6.53;;;11.80;99.90;;;12.04;66.30;95346.38;5025230;28;20465;-58
2022/10/09 03:57:43;;;;;;;7.80;6.60;;;11.80;99.90;;;12.00;65.80;95345.84;5025085;28;20842;-55
2022/10/09 04:00:12;;;;;;;9.70;5.40;;;11.80;99.90;;;11.96;66.08;95344.44;5025110;28;20562;-54
2022/10/09 04:02:40;;;;;;;5.93;5.30;;;11.80;99.90;;;11.91;66.62;95336.06;5020801;28;20453;-53
2022/10/09 04:05:09;;;;;;;7.87;6.27;;;11.70;99.90;;;11.91;66.27;95344.81;5023927;28;20566;-57
2022/10/09 04:07:36;;;;;;;15.53;6.80;;;11.70;99.90;;;11.90;66.31;95334.41;5025101;28;20977;-54
2022/10/09 04:10:04;;;;;;;31.13;6.40;;;11.70;99.90;;;11.88;66.12;95341.63;5024500;28;20484;-54
2022/10/09 04:12:31;;;;;;;9.60;5.83;;;11.70;99.90;;;11.87;66.15;95351.34;5025236;28;20833;-55
2022/10/09 04:14:59;;;;;;;9.83;5.80;;;11.70;99.90;;;11.86;66.06;95351.47;5024214;28;20472;-54
2022/10/09 04:17:26;;;;;;;8.43;5.87;;;11.70;99.90;;;11.86;66.02;95356.75;5020552;28;20467;-57
2022/10/09 04:19:55;;;;;;;15.13;5.90;;;11.70;99.90;;;11.86;66.26;95343.56;5024343;28;20876;-56
2022/10/09 04:22:22;;;;;;;12.10;6.13;;;11.60;99.90;;;11.84;66.17;95360.34;5024760;28;20479;-55
2022/10/09 04:24:49;;;;;;;11.20;6.47;;;11.70;99.90;;;11.84;66.08;95352.44;5023576;28;20496;-56
2022/10/09 04:27:16;;;;;;;8.27;6.83;;;11.60;99.90;;;11.84;66.00;95352.44;5024264;28;20465;-55
2022/10/09 04:29:44;;;;;;;7.57;6.73;;;11.70;99.90;;;11.83;66.11;95361.34;5024348;28;20941;-56
2022/10/09 04:32:11;;;;;;;7.27;6.30;;;11.60;99.90;;;11.83;66.53;95358.69;5027027;28;20550;-55
2022/10/09 04:34:38;;;;;;;14.93;6.93;;;11.60;99.90;;;11.81;66.16;95352.72;5027342;28;20826;-55
2022/10/09 04:37:07;;;;;;;7.03;6.40;;;11.60;99.90;;;11.80;66.43;95368.66;5027841;28;20799;-54
2022/10/09 04:39:34;;;;;;;8.73;7.77;;;11.60;99.90;;;11.79;66.23;95362.56;5027764;28;20520;-55
2022/10/09 04:42:01;;;;;;;20.43;7.30;;;11.60;99.90;;;11.78;66.06;95367.97;5027359;28;20457;-54
2022/10/09 04:44:29;;;;;;;10.03;8.40;;;11.60;99.90;;;11.77;66.58;95367.16;5027026;28;20678;-56
2022/10/09 04:46:56;;;;;;;12.63;7.27;;;11.60;99.90;;;11.77;66.34;95368.94;5025583;28;20461;-55
2022/10/09 04:49:23;;;;;;;9.57;8.53;;;11.60;99.90;;;11.76;66.20;95365.47;5026249;28;21028;-54
2022/10/09 04:51:50;;;;;;;14.67;8.80;;;11.60;99.90;;;11.74;66.10;95364.78;5027676;28;20480;-56
2022/10/09 04:54:19;;;;;;;11.77;8.40;;;11.60;99.90;;;11.73;66.12;95376.28;5027338;28;20886;-55
2022/10/09 04:56:46;;;;;;;13.00;7.80;;;11.50;99.90;;;11.69;66.23;95379.31;5027759;28;20823;-55
2022/10/09 04:59:14;;;;;;;18.13;8.63;;;11.50;99.90;;;11.65;66.26;95384.03;5025495;28;20483;-55
2022/10/09 05:01:41;;;;;;;14.10;8.27;;;11.50;99.90;;;11.63;66.28;95380.66;5023943;28;20483;-55
2022/10/09 05:04:08;;;;;;;14.83;7.73;;;11.40;99.90;;;11.62;66.63;95379.03;5026172;28;20538;-55
2022/10/09 05:06:36;;;;;;;14.50;8.30;;;11.50;99.90;;;11.64;66.53;95379.72;5027019;28;20449;-55
2022/10/09 05:09:03;;;;;;;12.23;8.03;;;11.50;99.90;;;11.64;66.64;95383.16;5027367;28;20449;-55
2022/10/09 05:11:32;;;;;;;13.70;8.33;;;11.50;99.90;;;11.66;66.74;95389.16;5026425;28;20449;-54
2022/10/09 05:13:59;;;;;;;18.20;9.37;;;11.50;99.90;;;11.66;66.53;95391.78;5027121;28;20484;-56
2022/10/09 05:16:28;;;;;;;18.50;8.23;;;11.50;99.90;;;11.68;67.03;95394.31;5026644;28;20441;-55
2022/10/09 05:18:57;;;;;;;13.00;8.10;;;11.50;99.90;;;11.70;66.83;95392.34;5026760;28;20475;-55
2022/10/09 05:21:25;;;;;;;17.00;10.57;;;11.50;99.90;;;11.75;66.82;95391.94;5023455;28;20514;-55
2022/10/09 05:23:53;;;;;;;13.77;8.63;;;11.50;99.90;;;11.80;66.95;95392.38;5025831;28;20506;-56
2022/10/09 05:26:22;;;;;;;9.80;8.73;;;11.60;99.90;;;11.83;67.18;95398.22;5027015;28;20522;-55
2022/10/09 05:28:51;;;;;;;15.47;9.40;;;11.60;99.90;;;11.90;66.52;95397.66;5025283;28;20916;-57
2022/10/09 05:31:21;;;;;;;14.90;9.20;;;11.70;99.90;;;12.00;66.49;95402.03;5024928;28;20484;-57
2022/10/09 05:33:48;;;;;;;13.63;8.50;;;11.80;99.90;;;12.10;66.18;95404.69;5024197;28;20456;-56
2022/10/09 05:36:16;;;;;;;13.87;9.40;;;11.90;99.90;;;12.21;66.05;95401.09;5026560;28;20564;-55
2022/10/09 05:38:43;;;;;;;20.33;10.37;;;12.00;99.90;;;12.32;66.04;95408.88;5027131;28;20829;-57
2022/10/09 05:41:12;;;;;;;21.33;9.40;;;12.10;99.90;;;12.45;65.67;95403.34;5023285;28;20465;-57
2022/10/09 05:43:40;;;;;;;20.50;10.73;;;12.20;99.90;;;12.58;65.71;95403.09;5025911;28;20965;-55
2022/10/09 05:46:10;;;;;;;18.40;8.90;;;12.30;99.90;;;12.74;64.96;95405.16;5024788;28;21062;-55
2022/10/09 05:48:37;;;;;;;10.17;8.50;;;12.50;99.90;;;12.91;65.02;95404.44;5023002;28;20965;-56
2022/10/09 05:51:10;;;;;;;12.27;8.37;;;12.60;99.90;;;13.12;64.41;95408.72;5024516;28;20491;-55
2022/10/09 05:53:37;;;;;;;12.53;9.67;;;12.80;99.90;;;13.35;64.20;95416.34;5024949;28;20461;-55
2022/10/09 05:56:15;;;;;;;20.40;9.47;;;13.00;99.60;;;13.58;64.26;95415.00;5026429;28;20487;-54
2022/10/09 05:58:43;;;;;;;11.80;8.47;;;13.20;99.50;;;13.81;63.70;95419.94;5025667;28;20526;-57
2022/10/09 06:01:12;;;;;;;12.20;8.80;;;13.40;99.20;;;14.02;63.10;95427.63;5026710;28;20488;-56
2022/10/09 06:03:39;;;;;;;18.80;9.77;;;13.70;98.90;;;14.24;62.99;95423.75;5022745;28;20465;-56
2022/10/09 06:06:07;;;;;;;15.43;10.60;;;13.90;98.80;;;14.51;62.63;95437.91;5024666;28;21071;-56
2022/10/09 06:08:35;;;;;;;15.70;9.63;;;14.10;98.60;;;14.78;61.77;95439.69;5024895;28;20492;-56
2022/10/09 06:11:11;;;;;;;11.07;8.60;;;14.40;98.40;;;15.08;61.46;95431.50;5020956;28;20860;-56
2022/10/09 06:13:38;;;;;;;22.57;9.50;;;14.60;97.90;;;15.35;60.71;95444.63;5022227;28;20467;-56
2022/10/09 06:16:05;;;;;;;15.50;8.27;;;14.90;97.40;;;15.58;60.23;95444.94;5025083;28;20989;-54
2022/10/09 06:18:34;;;;;;;13.53;8.03;;;15.20;97.00;;;15.84;59.49;95453.91;5024241;28;20483;-56
2022/10/09 06:21:02;;;;;;;12.03;7.47;;;15.40;96.50;;;16.08;58.82;95445.19;5025566;28;20651;-55
2022/10/09 06:23:31;;;;;;;13.40;7.47;;;15.70;96.10;;;16.36;58.39;95444.97;5022366;28;20508;-55
2022/10/09 06:26:00;;;;;;;9.50;7.10;;;15.90;95.70;;;16.56;57.58;95438.41;5021943;28;21046;-55
2022/10/09 06:28:28;;;;;;;12.50;7.90;;;16.10;95.00;;;16.83;57.16;95455.88;5023176;28;20540;-57
2022/10/09 06:31:01;;;;;;;16.33;7.57;;;16.40;94.80;;;17.11;57.01;95452.13;5022907;28;20485;-58
2022/10/09 06:33:31;;;;;;;21.83;6.67;;;16.70;94.40;;;17.41;56.44;95452.41;5016567;28;20552;-57
2022/10/09 06:36:04;;;;;;;7.37;6.20;;;16.90;94.40;;;17.77;55.93;95462.66;5020644;28;20480;-57
2022/10/09 06:38:33;;;;;;;7.00;6.30;;;17.30;93.70;;;18.14;55.39;95454.13;5019228;28;20456;-55
2022/10/09 06:41:02;;;;;;;15.53;6.67;;;17.60;93.00;;;18.48;54.16;95460.94;5022570;28;20565;-56
2022/10/09 06:43:29;;;;;;;10.00;8.00;;;18.00;92.60;;;18.79;54.14;95457.44;5022617;28;21094;-55
2022/10/09 06:45:59;;;;;;;7.90;7.20;;;18.30;92.00;;;19.07;53.33;95460.47;5023379;28;20495;-56
2022/10/09 06:48:29;;;;;;;9.57;6.90;;;18.60;91.50;;;19.37;52.96;95462.41;5023069;28;20805;-58
2022/10/09 06:51:02;;;;;;;10.10;7.40;;;18.80;90.80;;;19.61;52.37;95464.84;5024313;28;20476;-56
2022/10/09 06:53:29;;;;;;;10.70;6.20;;;19.10;90.60;;;19.92;52.46;95469.22;5022536;28;20575;-56
2022/10/09 06:55:57;;;;;;;7.77;6.90;;;19.40;90.20;;;20.34;51.90;95473.09;5023086;28;20484;-57
2022/10/09 06:58:25;;;;;;;7.70;6.20;;;19.70;90.00;;;20.84;51.38;95467.97;5023679;28;20522;-55
2022/10/09 07:01:03;;;;;;;9.90;7.53;;;20.20;89.30;;;21.42;49.69;95459.06;5024700;28;20581;-56
2022/10/09 07:03:31;;;;;;;6.73;6.10;;;20.70;86.80;;;21.95;49.95;95459.50;5021211;28;20521;-54
2022/10/09 07:06:08;;;;;;;9.13;7.47;;;21.20;85.70;;;22.54;47.73;95457.34;5020630;28;20500;-56
2022/10/09 07:08:36;;;;;;;10.70;7.20;;;21.80;82.80;;;23.07;48.09;95456.69;5023475;28;20448;-57
2022/10/09 07:11:09;;;;;;;14.10;7.97;;;22.30;81.10;;;23.58;46.48;95458.84;5024479;28;20469;-54
2022/10/09 07:13:37;;;;;;;13.73;6.47;;;22.90;78.50;;;24.03;45.96;95465.44;5021469;28;20463;-56
2022/10/09 07:16:05;;;;;;;12.17;7.10;;;23.40;76.80;;;24.52;45.75;95470.28;5016949;28;20491;-56
2022/10/09 07:18:33;;;;;;;15.40;7.33;;;24.00;74.10;;;25.06;45.17;95470.88;5017414;28;20448;-55
2022/10/09 07:21:02;;;;;;;8.60;7.30;;;24.50;72.10;;;25.62;42.70;95467.66;5018374;28;20499;-57
2022/10/09 07:23:31;;;;;;;7.93;6.63;;;25.10;67.50;;;26.15;42.85;95477.16;5021644;28;20499;-56
2022/10/09 07:25:58;;;;;;;10.43;7.37;;;25.60;66.80;;;26.59;41.62;95467.97;5016752;28;20725;-57
2022/10/09 07:28:26;;;;;;;9.97;7.70;;;26.20;64.40;;;26.88;41.01;95470.13;5020452;28;20567;-56
2022/10/09 07:30:54;;;;;;;12.00;7.50;;;26.40;61.80;;;27.06;40.51;95464.69;5017466;28;20476;-55
2022/10/09 07:33:21;;;;;;;9.63;7.87;;;26.70;60.20;;;27.24;40.43;95473.81;5019189;28;20448;-57
2022/10/09 07:35:54;;;;;;;18.30;8.97;;;26.90;59.70;;;27.40;39.56;95466.97;5014154;28;21008;-57
2022/10/09 07:38:21;;;;;;;12.70;9.07;;;27.00;58.70;;;27.56;39.80;95469.00;5021135;28;20456;-53
2022/10/09 07:40:50;;;;;;;11.10;8.70;;;27.20;58.00;;;27.79;38.42;95475.47;5019459;28;20468;-56
2022/10/09 07:43:17;;;;;;;13.17;9.70;;;27.50;56.60;;;27.97;38.64;95470.00;5021535;28;20464;-58
2022/10/09 07:45:45;;;;;;;12.07;8.33;;;27.60;56.20;;;28.13;38.61;95481.19;5018259;28;20492;-55
2022/10/09 07:48:12;;;;;;;17.17;8.33;;;27.80;55.80;;;28.29;37.48;95483.19;5019133;28;20502;-55
2022/10/09 07:50:40;;;;;;;18.10;9.27;;;27.90;55.00;;;28.47;36.82;95482.22;5018965;28;20464;-53
2022/10/09 07:53:08;;;;;;;19.80;8.23;;;28.00;54.30;;;28.56;37.42;95475.38;5019324;28;20580;-55
2022/10/09 07:55:36;;;;;;;19.40;10.03;;;28.00;54.40;;;28.63;36.83;95477.16;5016185;28;20480;-56
2022/10/09 07:58:05;;;;;;;10.17;7.10;;;28.10;53.80;;;28.77;35.91;95470.44;5018793;28;20501;-56
2022/10/09 08:00:32;;;;;;;12.33;7.90;;;28.20;53.00;;;28.89;35.56;95470.38;5015871;28;21011;-56
2022/10/09 08:02:59;;;;;;;15.77;7.80;;;28.30;52.50;;;28.87;36.64;95470.63;5018830;28;20492;-56
2022/10/09 08:05:27;;;;;;;16.30;8.03;;;28.30;52.20;;;29.00;35.99;95465.97;5020864;28;20503;-53
2022/10/09 08:07:55;;;;;;;15.23;7.57;;;28.40;52.90;;;29.21;36.13;95467.22;5024727;28;20480;-55
2022/10/09 08:10:22;;;;;;;15.10;6.60;;;28.50;53.20;;;29.47;36.25;95463.09;5024528;28;20464;-53
2022/10/09 08:12:50;;;;;;;13.43;6.20;;;28.70;52.30;;;29.73;35.52;95463.50;5021102;28;21024;-58
2022/10/09 08:15:18;;;;;;;11.93;6.80;;;29.00;52.10;;;30.01;34.70;95454.50;5024921;28;20291;-54
2022/10/09 08:17:46;;;;;;;9.90;5.70;;;29.20;51.20;;;30.26;34.61;95451.34;5020827;28;20202;-57
2022/10/09 08:20:13;;;;;;;8.90;5.73;;;29.50;50.50;;;30.42;34.17;95451.59;5021611;28;20230;-56
2022/10/09 08:22:41;;;;;;;17.63;6.63;;;29.70;50.20;;;30.43;34.55;95453.22;5021961;28;20205;-55
2022/10/09 08:25:09;;;;;;;10.10;5.57;;;29.70;49.60;;;30.33;34.40;95448.44;5019323;28;20252;-55
2022/10/09 08:27:37;;;;;;;10.70;6.13;;;29.70;50.00;;;30.16;34.68;95448.47;5023946;28;20452;-56
2022/10/09 08:30:05;;;;;;;10.80;4.63;;;29.60;49.40;;;29.99;33.75;95448.50;5022011;28;20225;-53
2022/10/09 08:32:34;;;;;;;10.73;5.20;;;29.40;49.40;;;29.93;34.42;95457.63;5020997;28;20458;-54
2022/10/09 08:35:01;;;;;;;8.70;5.33;;;29.30;49.30;;;29.94;34.59;95454.66;5021744;28;20886;-55
2022/10/09 08:37:29;;;;;;;6.23;4.53;;;29.30;49.00;;;30.02;34.79;95448.00;5022903;28;20193;-55
2022/10/09 08:39:56;;;;;;;7.37;4.30;;;29.30;49.20;;;30.11;34.22;95453.84;5024520;28;20468;-53
2022/10/09 08:42:28;;;;;;;10.53;4.13;;;29.40;49.30;;;30.18;33.46;95457.22;5021421;28;20491;-55
2022/10/09 08:44:56;;;;;;;5.47;3.63;;;29.50;48.60;;;30.34;33.63;95459.03;5023058;28;20919;-55
2022/10/09 08:47:25;;;;;;;4.57;4.17;;;29.50;48.60;;;30.50;33.46;95453.84;5023786;28;20202;-56
2022/10/09 08:49:56;;;;;;;6.37;4.90;;;29.70;48.50;;;30.69;33.05;95448.94;5024000;28;20223;-55
2022/10/09 08:52:31;;;;;;;21.20;5.00;;;29.80;47.70;;;30.90;32.68;95439.13;5022917;28;20945;-55
2022/10/09 08:55:01;;;;;;;6.33;4.00;;;30.00;47.80;;;31.08;32.74;95438.03;5024203;28;20725;-57
2022/10/09 08:57:32;;;;;;;7.63;3.63;;;30.20;47.40;;;31.22;32.67;95433.00;5023216;28;20261;-55
2022/10/09 08:59:59;;;;;;;8.33;4.60;;;30.40;47.00;;;31.34;32.13;95422.78;5020929;28;20408;-55
2022/10/09 09:02:41;;;;;;;10.43;4.10;;;30.50;46.50;;;31.35;31.78;95432.56;5021562;28;20217;-56
2022/10/09 09:05:19;;;;;;;5.80;3.63;;;30.50;45.90;;;31.40;32.13;95429.06;5022966;28;20228;-55
2022/10/09 09:07:51;;;;;;;4.97;3.40;;;30.60;46.50;;;31.49;31.75;95421.28;5024688;28;20275;-56
2022/10/09 09:10:25;;;;;;;7.63;3.97;;;30.70;45.60;;;31.53;31.79;95416.97;5017928;28;20218;-57
2022/10/09 09:12:55;;;;;;;5.07;4.20;;;30.80;45.70;;;31.50;32.09;95414.78;5023437;28;20193;-55
2022/10/09 09:15:35;;;;;;;4.23;3.50;;;30.70;45.60;;;31.52;31.02;95420.75;5017200;28;20355;-56
2022/10/09 09:18:14;;;;;;;3.90;3.57;;;30.70;45.50;;;31.35;31.70;95426.31;5022607;28;20194;-57
2022/10/09 09:20:51;;;;;;;8.73;3.73;;;30.70;45.60;;;31.13;31.64;95418.22;5017032;28;20427;-56
2022/10/09 09:23:19;;;;;;;7.50;3.20;;;30.50;45.50;;;30.97;32.68;95418.06;5022297;28;20200;-54
2022/10/09 09:25:47;;;;;;;12.10;3.77;;;30.30;46.10;;;30.84;32.54;95416.53;5021083;28;20241;-58
2022/10/09 09:28:18;;;;;;;5.70;4.20;;;30.20;46.10;;;30.76;31.83;95416.97;5024395;28;20233;-54
2022/10/09 09:30:47;;;;;;;7.23;4.43;;;30.10;46.10;;;30.60;32.23;95421.41;5020644;28;20240;-55
2022/10/09 09:33:18;;;;;;;6.63;3.70;;;30.00;46.30;;;30.55;32.80;95419.47;5021765;28;20190;-56
2022/10/09 09:35:52;;;;;;;15.10;3.73;;;29.90;45.80;;;30.58;31.96;95418.13;5021106;28;21646;-57
2022/10/09 09:38:19;;;;;;;8.97;3.90;;;29.90;45.50;;;30.66;31.92;95414.97;5021198;28;20204;-54
2022/10/09 09:40:47;;;;;;;5.37;3.10;;;29.90;46.00;;;30.71;31.90;95420.47;5023519;28;20233;-57
2022/10/09 09:43:17;;;;;;;6.23;4.37;;;30.00;45.50;;;30.77;32.74;95421.34;5020930;28;20248;-54
2022/10/09 09:45:44;;;;;;;90.90;20.97;;;30.00;45.90;;;30.82;32.89;95423.31;5019494;28;20331;-56
2022/10/09 09:48:14;;;;;;;34.87;9.90;;;30.10;45.90;;;30.84;32.42;95419.25;5018264;28;20671;-55
2022/10/09 09:50:42;;;;;;;50.80;11.60;;;30.10;45.30;;;30.80;32.18;95429.00;5021654;28;20316;-55
2022/10/09 09:53:18;;;;;;;12.70;6.00;;;30.10;45.70;;;30.77;32.13;95425.94;5022814;28;20308;-56
2022/10/09 09:55:45;;;;;;;14.30;5.50;;;30.10;45.90;;;30.72;32.71;95419.41;5016823;28;20248;-58
2022/10/09 09:58:15;;;;;;;3.67;3.23;;;30.00;45.50;;;30.70;31.61;95418.00;5023501;28;20351;-57
2022/10/09 10:00:53;;;;;;;5.13;3.93;;;30.00;45.10;;;30.70;31.87;95416.09;5020011;28;20229;-56
2022/10/09 10:03:20;;;;;;;17.60;4.20;;;30.00;45.10;;;30.61;32.45;95417.59;5019739;28;20605;-57
2022/10/09 10:05:48;;;;;;;6.00;3.37;;;29.90;45.50;;;30.53;32.57;95427.00;5021432;28;20726;-55
2022/10/09 10:08:25;;;;;;;8.67;3.90;;;29.90;45.10;;;30.50;32.04;95426.72;5022866;28;20313;-54
2022/10/09 10:10:54;;;;;;;3.87;3.57;;;29.80;45.60;;;30.45;31.92;95423.94;5013674;28;20571;-56
2022/10/09 10:13:22;;;;;;;3.40;3.20;;;29.80;45.60;;;30.41;31.80;95420.06;5022000;28;20240;-57
2022/10/09 10:15:54;;;;;;;3.70;3.40;;;29.80;45.20;;;30.42;32.33;95419.00;5022867;28;20248;-57
2022/10/09 10:18:22;;;;;;;8.73;3.90;;;29.70;45.10;;;30.43;32.42;95426.91;5023014;28;20228;-57
2022/10/09 10:20:51;;;;;;;6.53;3.63;;;29.70;45.60;;;30.42;31.98;95416.28;5025101;28;20709;-58
2022/10/09 10:23:34;;;;;;;10.10;3.70;;;29.70;45.60;;;30.37;32.03;95409.69;5020212;28;20611;-58